Terminal Aerodrome Forecast
Issued by NWS Bismarck, ND

Home | Current Version | Previous Version | Graphics & Text | Print | Product List | Glossary On
Versions: 1 2 3 4 5 6 7 8 9 10 11 12 13 14 15 16
000
FTUS43 KBIS 150400 AAB
TAFISN
TAF AMD
KISN 150428Z 1504/1524 08011KT P6SM SCT150 BKN250 WS014/17050KT
     FM151100 25009KT P6SM BKN220
     FM151400 29011KT P6SM BKN160
     FM152000 33013KT P6SM BKN050
     FM152200 34020G29KT P6SM BKN050=

USA.gov is the U.S. government's official web portal to all federal, state and local government web resources and services.